sensor_id;sensor_type;location;lat;lon;timestamp;temperature;humidity
5461;DHT22;2753;49.196;8.286;2023-08-07T00:00:46;14.40;99.90
5461;DHT22;2753;49.196;8.286;2023-08-07T00:03:12;14.40;99.90
5461;DHT22;2753;49.196;8.286;2023-08-07T00:05:45;14.40;99.90
5461;DHT22;2753;49.196;8.286;2023-08-07T00:08:11;14.40;99.90
5461;DHT22;2753;49.196;8.286;2023-08-07T00:10:37;14.40;99.90
5461;DHT22;2753;49.196;8.286;2023-08-07T00:13:04;14.40;99.90
5461;DHT22;2753;49.196;8.286;2023-08-07T00:15:30;14.30;99.90
5461;DHT22;2753;49.196;8.286;2023-08-07T00:17:56;14.30;99.90
5461;DHT22;2753;49.196;8.286;2023-08-07T00:20:22;14.30;99.90
5461;DHT22;2753;49.196;8.286;2023-08-07T00:22:47;14.30;99.90
5461;DHT22;2753;49.196;8.286;2023-08-07T00:25:13;14.30;99.90
5461;DHT22;2753;49.196;8.286;2023-08-07T00:27:39;14.30;99.90
5461;DHT22;2753;49.196;8.286;2023-08-07T00:30:05;14.30;99.90
5461;DHT22;2753;49.196;8.286;2023-08-07T00:32:31;14.30;99.90
5461;DHT22;2753;49.196;8.286;2023-08-07T00:34:56;14.30;99.90
5461;DHT22;2753;49.196;8.286;2023-08-07T00:37:22;14.30;99.90
5461;DHT22;2753;49.196;8.286;2023-08-07T00:39:48;14.30;99.90
5461;DHT22;2753;49.196;8.286;2023-08-07T00:42:13;14.20;99.90
5461;DHT22;2753;49.196;8.286;2023-08-07T00:44:39;14.20;99.90
5461;DHT22;2753;49.196;8.286;2023-08-07T00:47:06;14.20;99.90
5461;DHT22;2753;49.196;8.286;2023-08-07T00:49:32;14.20;99.90
5461;DHT22;2753;49.196;8.286;2023-08-07T00:51:58;14.20;99.90
5461;DHT22;2753;49.196;8.286;2023-08-07T00:54:25;14.10;99.90
5461;DHT22;2753;49.196;8.286;2023-08-07T00:56:51;14.20;99.90
5461;DHT22;2753;49.196;8.286;2023-08-07T00:59:18;14.20;99.90
5461;DHT22;2753;49.196;8.286;2023-08-07T01:01:44;14.10;99.90
5461;DHT22;2753;49.196;8.286;2023-08-07T01:04:10;14.20;99.90
5461;DHT22;2753;49.196;8.286;2023-08-07T01:06:36;14.10;99.90
5461;DHT22;2753;49.196;8.286;2023-08-07T01:09:02;14.10;99.90
5461;DHT22;2753;49.196;8.286;2023-08-07T01:14:28;14.20;99.90
5461;DHT22;2753;49.196;8.286;2023-08-07T01:19:28;14.10;99.90
5461;DHT22;2753;49.196;8.286;2023-08-07T01:24:36;14.10;99.90
5461;DHT22;2753;49.196;8.286;2023-08-07T01:27:46;14.10;99.90
5461;DHT22;2753;49.196;8.286;2023-08-07T01:30:35;14.10;99.90
5461;DHT22;2753;49.196;8.286;2023-08-07T01:33:24;14.00;99.90
5461;DHT22;2753;49.196;8.286;2023-08-07T01:35:55;14.00;99.90
5461;DHT22;2753;49.196;8.286;2023-08-07T01:38:25;14.00;99.90
5461;DHT22;2753;49.196;8.286;2023-08-07T01:40:52;14.00;99.90
5461;DHT22;2753;49.196;8.286;2023-08-07T01:43:19;14.00;99.90
5461;DHT22;2753;49.196;8.286;2023-08-07T01:45:45;14.00;99.90
5461;DHT22;2753;49.196;8.286;2023-08-07T01:48:11;13.90;99.90
5461;DHT22;2753;49.196;8.286;2023-08-07T01:50:38;13.90;99.90
5461;DHT22;2753;49.196;8.286;2023-08-07T01:53:04;14.00;99.90
5461;DHT22;2753;49.196;8.286;2023-08-07T01:55:30;13.90;99.90
5461;DHT22;2753;49.196;8.286;2023-08-07T01:57:56;14.00;99.90
5461;DHT22;2753;49.196;8.286;2023-08-07T02:00:21;13.90;99.90
5461;DHT22;2753;49.196;8.286;2023-08-07T02:02:48;13.90;99.90
5461;DHT22;2753;49.196;8.286;2023-08-07T02:05:14;13.90;99.90
5461;DHT22;2753;49.196;8.286;2023-08-07T02:07:41;13.90;99.90
5461;DHT22;2753;49.196;8.286;2023-08-07T02:10:08;13.80;99.90
5461;DHT22;2753;49.196;8.286;2023-08-07T02:12:33;13.80;99.90
5461;DHT22;2753;49.196;8.286;2023-08-07T02:15:00;13.80;99.90
5461;DHT22;2753;49.196;8.286;2023-08-07T02:17:29;13.80;99.90
5461;DHT22;2753;49.196;8.286;2023-08-07T02:19:56;13.80;99.90
5461;DHT22;2753;49.196;8.286;2023-08-07T02:22:21;13.80;99.90
5461;DHT22;2753;49.196;8.286;2023-08-07T02:24:47;13.70;99.90
5461;DHT22;2753;49.196;8.286;2023-08-07T02:27:14;13.70;99.90
5461;DHT22;2753;49.196;8.286;2023-08-07T02:29:40;13.70;99.90
5461;DHT22;2753;49.196;8.286;2023-08-07T02:32:05;13.70;99.90
5461;DHT22;2753;49.196;8.286;2023-08-07T02:34:31;13.70;99.90
5461;DHT22;2753;49.196;8.286;2023-08-07T02:36:58;13.70;99.90
5461;DHT22;2753;49.196;8.286;2023-08-07T02:39:24;13.70;99.90
5461;DHT22;2753;49.196;8.286;2023-08-07T02:41:50;13.70;99.90
5461;DHT22;2753;49.196;8.286;2023-08-07T02:44:16;13.70;99.90
5461;DHT22;2753;49.196;8.286;2023-08-07T02:46:43;13.70;99.90
5461;DHT22;2753;49.196;8.286;2023-08-07T02:52:31;13.60;99.90
5461;DHT22;2753;49.196;8.286;2023-08-07T02:54:57;13.60;99.90
5461;DHT22;2753;49.196;8.286;2023-08-07T02:57:23;13.60;99.90
5461;DHT22;2753;49.196;8.286;2023-08-07T02:59:50;13.60;99.90
5461;DHT22;2753;49.196;8.286;2023-08-07T03:02:16;13.60;99.90
5461;DHT22;2753;49.196;8.286;2023-08-07T03:04:41;13.60;99.90
5461;DHT22;2753;49.196;8.286;2023-08-07T03:07:07;13.60;99.90
5461;DHT22;2753;49.196;8.286;2023-08-07T03:09:33;13.60;99.90
5461;DHT22;2753;49.196;8.286;2023-08-07T03:11:58;13.60;99.90
5461;DHT22;2753;49.196;8.286;2023-08-07T03:14:28;13.60;99.90
5461;DHT22;2753;49.196;8.286;2023-08-07T03:16:54;13.60;99.90
5461;DHT22;2753;49.196;8.286;2023-08-07T03:19:20;13.60;99.90
5461;DHT22;2753;49.196;8.286;2023-08-07T03:21:47;13.60;99.90
5461;DHT22;2753;49.196;8.286;2023-08-07T03:24:13;13.70;99.90
5461;DHT22;2753;49.196;8.286;2023-08-07T03:26:39;13.60;99.90
5461;DHT22;2753;49.196;8.286;2023-08-07T03:29:04;13.70;99.90
5461;DHT22;2753;49.196;8.286;2023-08-07T03:31:30;13.70;99.90
5461;DHT22;2753;49.196;8.286;2023-08-07T03:34:00;13.70;99.90
5461;DHT22;2753;49.196;8.286;2023-08-07T03:36:25;13.70;99.90
5461;DHT22;2753;49.196;8.286;2023-08-07T03:38:51;13.70;99.90
5461;DHT22;2753;49.196;8.286;2023-08-07T03:41:17;13.70;99.90
5461;DHT22;2753;49.196;8.286;2023-08-07T03:43:42;13.70;99.90
5461;DHT22;2753;49.196;8.286;2023-08-07T03:46:08;13.70;99.90
5461;DHT22;2753;49.196;8.286;2023-08-07T03:48:34;13.70;99.90
5461;DHT22;2753;49.196;8.286;2023-08-07T03:51:04;13.70;99.90
5461;DHT22;2753;49.196;8.286;2023-08-07T03:53:30;13.70;99.90
5461;DHT22;2753;49.196;8.286;2023-08-07T03:55:55;13.70;99.90
5461;DHT22;2753;49.196;8.286;2023-08-07T03:58:21;13.60;99.90
5461;DHT22;2753;49.196;8.286;2023-08-07T04:00:46;13.60;99.90
5461;DHT22;2753;49.196;8.286;2023-08-07T04:03:12;13.60;99.90
5461;DHT22;2753;49.196;8.286;2023-08-07T04:05:38;13.60;99.90
5461;DHT22;2753;49.196;8.286;2023-08-07T04:08:04;13.60;99.90
5461;DHT22;2753;49.196;8.286;2023-08-07T04:10:29;13.60;99.90
5461;DHT22;2753;49.196;8.286;2023-08-07T04:12:55;13.60;99.90
5461;DHT22;2753;49.196;8.286;2023-08-07T04:15:21;13.60;99.90
5461;DHT22;2753;49.196;8.286;2023-08-07T04:17:46;13.60;99.90
5461;DHT22;2753;49.196;8.286;2023-08-07T04:20:12;13.70;99.90
5461;DHT22;2753;49.196;8.286;2023-08-07T04:22:39;13.70;99.90
5461;DHT22;2753;49.196;8.286;2023-08-07T04:25:05;13.60;99.90
5461;DHT22;2753;49.196;8.286;2023-08-07T04:27:30;13.60;99.90
5461;DHT22;2753;49.196;8.286;2023-08-07T04:29:56;13.60;99.90
5461;DHT22;2753;49.196;8.286;2023-08-07T04:32:22;13.60;99.90
5461;DHT22;2753;49.196;8.286;2023-08-07T04:34:48;13.60;99.90
5461;DHT22;2753;49.196;8.286;2023-08-07T04:37:13;13.60;99.90
5461;DHT22;2753;49.196;8.286;2023-08-07T04:39:39;13.60;99.90
5461;DHT22;2753;49.196;8.286;2023-08-07T04:42:05;13.60;99.90
5461;DHT22;2753;49.196;8.286;2023-08-07T04:44:30;13.60;99.90
5461;DHT22;2753;49.196;8.286;2023-08-07T04:46:56;13.60;99.90
5461;DHT22;2753;49.196;8.286;2023-08-07T04:49:22;13.60;99.90
5461;DHT22;2753;49.196;8.286;2023-08-07T04:51:47;13.60;99.90
5461;DHT22;2753;49.196;8.286;2023-08-07T04:54:13;13.60;99.90
5461;DHT22;2753;49.196;8.286;2023-08-07T04:56:38;13.60;99.90
5461;DHT22;2753;49.196;8.286;2023-08-07T04:59:04;13.60;99.90
5461;DHT22;2753;49.196;8.286;2023-08-07T05:01:30;13.60;99.90
5461;DHT22;2753;49.196;8.286;2023-08-07T05:03:55;13.60;99.90
5461;DHT22;2753;49.196;8.286;2023-08-07T05:06:22;13.60;99.90
5461;DHT22;2753;49.196;8.286;2023-08-07T05:08:48;13.60;99.90
5461;DHT22;2753;49.196;8.286;2023-08-07T05:11:14;13.70;99.90
5461;DHT22;2753;49.196;8.286;2023-08-07T05:13:40;13.70;99.90
5461;DHT22;2753;49.196;8.286;2023-08-07T05:16:06;13.70;99.90
5461;DHT22;2753;49.196;8.286;2023-08-07T05:18:32;13.60;99.90
5461;DHT22;2753;49.196;8.286;2023-08-07T05:20:57;13.60;99.90
5461;DHT22;2753;49.196;8.286;2023-08-07T05:23:23;13.60;99.90
5461;DHT22;2753;49.196;8.286;2023-08-07T05:25:49;13.70;99.90
5461;DHT22;2753;49.196;8.286;2023-08-07T05:28:14;13.60;99.90
5461;DHT22;2753;49.196;8.286;2023-08-07T05:30:40;13.60;99.90
5461;DHT22;2753;49.196;8.286;2023-08-07T05:33:06;13.60;99.90
5461;DHT22;2753;49.196;8.286;2023-08-07T05:35:31;13.60;99.90
5461;DHT22;2753;49.196;8.286;2023-08-07T05:37:57;13.70;99.90
5461;DHT22;2753;49.196;8.286;2023-08-07T05:40:22;13.70;99.90
5461;DHT22;2753;49.196;8.286;2023-08-07T05:42:48;13.70;99.90
5461;DHT22;2753;49.196;8.286;2023-08-07T05:45:14;13.70;99.90
5461;DHT22;2753;49.196;8.286;2023-08-07T05:47:40;13.70;99.90
5461;DHT22;2753;49.196;8.286;2023-08-07T05:50:07;13.70;99.90
5461;DHT22;2753;49.196;8.286;2023-08-07T05:52:33;13.70;99.90
5461;DHT22;2753;49.196;8.286;2023-08-07T05:54:58;13.70;99.90
5461;DHT22;2753;49.196;8.286;2023-08-07T05:57:24;13.70;99.90
5461;DHT22;2753;49.196;8.286;2023-08-07T05:59:50;13.80;99.90
5461;DHT22;2753;49.196;8.286;2023-08-07T06:02:16;12.60;99.90
5461;DHT22;2753;49.196;8.286;2023-08-07T06:04:41;13.80;99.90
5461;DHT22;2753;49.196;8.286;2023-08-07T06:07:07;13.80;99.90
5461;DHT22;2753;49.196;8.286;2023-08-07T06:09:33;13.80;99.90
5461;DHT22;2753;49.196;8.286;2023-08-07T06:11:59;13.80;99.90
5461;DHT22;2753;49.196;8.286;2023-08-07T06:14:24;13.80;99.90
5461;DHT22;2753;49.196;8.286;2023-08-07T06:16:51;13.80;99.90
5461;DHT22;2753;49.196;8.286;2023-08-07T06:19:17;13.80;99.90
5461;DHT22;2753;49.196;8.286;2023-08-07T06:21:43;13.80;99.90
5461;DHT22;2753;49.196;8.286;2023-08-07T06:24:09;13.80;99.90
5461;DHT22;2753;49.196;8.286;2023-08-07T06:26:34;13.80;99.90
5461;DHT22;2753;49.196;8.286;2023-08-07T06:29:00;13.80;99.90
5461;DHT22;2753;49.196;8.286;2023-08-07T06:31:26;13.80;99.90
5461;DHT22;2753;49.196;8.286;2023-08-07T06:33:53;13.80;99.90
5461;DHT22;2753;49.196;8.286;2023-08-07T06:36:19;13.80;99.90
5461;DHT22;2753;49.196;8.286;2023-08-07T06:38:45;13.80;99.90
5461;DHT22;2753;49.196;8.286;2023-08-07T06:41:10;13.80;99.90
5461;DHT22;2753;49.196;8.286;2023-08-07T06:43:36;13.80;99.90
5461;DHT22;2753;49.196;8.286;2023-08-07T06:46:03;13.80;99.90
5461;DHT22;2753;49.196;8.286;2023-08-07T06:48:28;13.80;99.90
5461;DHT22;2753;49.196;8.286;2023-08-07T06:50:54;13.80;99.90
5461;DHT22;2753;49.196;8.286;2023-08-07T06:53:20;13.90;99.90
5461;DHT22;2753;49.196;8.286;2023-08-07T06:55:46;13.90;99.90
5461;DHT22;2753;49.196;8.286;2023-08-07T06:58:12;13.90;99.90
5461;DHT22;2753;49.196;8.286;2023-08-07T07:00:38;13.90;99.90
5461;DHT22;2753;49.196;8.286;2023-08-07T07:03:05;13.90;99.90
5461;DHT22;2753;49.196;8.286;2023-08-07T07:05:32;13.90;99.90
5461;DHT22;2753;49.196;8.286;2023-08-07T07:07:58;13.90;99.90
5461;DHT22;2753;49.196;8.286;2023-08-07T07:10:24;13.90;99.90
5461;DHT22;2753;49.196;8.286;2023-08-07T07:12:49;13.90;99.90
5461;DHT22;2753;49.196;8.286;2023-08-07T07:15:15;13.90;99.90
5461;DHT22;2753;49.196;8.286;2023-08-07T07:17:41;13.90;99.90
5461;DHT22;2753;49.196;8.286;2023-08-07T07:20:07;14.00;99.90
5461;DHT22;2753;49.196;8.286;2023-08-07T07:22:36;14.00;99.90
5461;DHT22;2753;49.196;8.286;2023-08-07T07:25:02;14.00;99.90
5461;DHT22;2753;49.196;8.286;2023-08-07T07:27:27;14.00;99.90
5461;DHT22;2753;49.196;8.286;2023-08-07T07:29:53;14.00;99.90
5461;DHT22;2753;49.196;8.286;2023-08-07T07:32:19;14.00;99.90
5461;DHT22;2753;49.196;8.286;2023-08-07T07:34:45;14.00;99.90
5461;DHT22;2753;49.196;8.286;2023-08-07T07:37:10;14.00;99.90
5461;DHT22;2753;49.196;8.286;2023-08-07T07:39:36;14.00;99.90
5461;DHT22;2753;49.196;8.286;2023-08-07T07:42:02;14.00;99.90
5461;DHT22;2753;49.196;8.286;2023-08-07T07:44:30;14.00;99.90
5461;DHT22;2753;49.196;8.286;2023-08-07T07:46:55;14.00;99.90
5461;DHT22;2753;49.196;8.286;2023-08-07T07:49:21;14.00;99.90
5461;DHT22;2753;49.196;8.286;2023-08-07T07:51:47;14.00;99.90
5461;DHT22;2753;49.196;8.286;2023-08-07T07:54:14;14.00;99.90
5461;DHT22;2753;49.196;8.286;2023-08-07T07:56:39;14.10;99.90
5461;DHT22;2753;49.196;8.286;2023-08-07T07:59:05;14.10;99.90
5461;DHT22;2753;49.196;8.286;2023-08-07T08:01:31;14.10;99.90
5461;DHT22;2753;49.196;8.286;2023-08-07T08:03:56;14.10;99.90
5461;DHT22;2753;49.196;8.286;2023-08-07T08:06:22;14.10;99.90
5461;DHT22;2753;49.196;8.286;2023-08-07T08:08:48;14.10;99.90
5461;DHT22;2753;49.196;8.286;2023-08-07T08:11:14;14.20;99.90
5461;DHT22;2753;49.196;8.286;2023-08-07T08:13:40;14.20;99.90
5461;DHT22;2753;49.196;8.286;2023-08-07T08:16:06;14.20;99.90
5461;DHT22;2753;49.196;8.286;2023-08-07T08:18:32;14.30;99.90
5461;DHT22;2753;49.196;8.286;2023-08-07T08:20:58;14.30;99.90
5461;DHT22;2753;49.196;8.286;2023-08-07T08:23:24;14.30;99.90
5461;DHT22;2753;49.196;8.286;2023-08-07T08:25:50;14.40;99.90
5461;DHT22;2753;49.196;8.286;2023-08-07T08:28:17;14.40;99.90
5461;DHT22;2753;49.196;8.286;2023-08-07T08:30:43;14.40;99.90
5461;DHT22;2753;49.196;8.286;2023-08-07T08:33:08;14.50;99.90
5461;DHT22;2753;49.196;8.286;2023-08-07T08:35:37;14.50;99.90
5461;DHT22;2753;49.196;8.286;2023-08-07T08:38:03;14.50;99.90
5461;DHT22;2753;49.196;8.286;2023-08-07T08:40:30;14.60;99.90
5461;DHT22;2753;49.196;8.286;2023-08-07T08:43:00;14.60;99.90
5461;DHT22;2753;49.196;8.286;2023-08-07T08:45:26;14.60;99.90
5461;DHT22;2753;49.196;8.286;2023-08-07T08:47:55;14.70;99.90
5461;DHT22;2753;49.196;8.286;2023-08-07T08:50:23;14.70;99.90
5461;DHT22;2753;49.196;8.286;2023-08-07T08:52:51;14.80;99.90
5461;DHT22;2753;49.196;8.286;2023-08-07T08:55:20;14.80;99.90
5461;DHT22;2753;49.196;8.286;2023-08-07T08:57:46;14.80;99.90
5461;DHT22;2753;49.196;8.286;2023-08-07T09:00:14;14.90;99.90
5461;DHT22;2753;49.196;8.286;2023-08-07T09:02:50;14.90;99.90
5461;DHT22;2753;49.196;8.286;2023-08-07T09:05:19;15.00;99.90
5461;DHT22;2753;49.196;8.286;2023-08-07T09:07:48;15.00;99.90
5461;DHT22;2753;49.196;8.286;2023-08-07T09:10:15;15.00;99.90
5461;DHT22;2753;49.196;8.286;2023-08-07T09:12:49;15.10;99.90
5461;DHT22;2753;49.196;8.286;2023-08-07T09:15:20;15.00;99.90
5461;DHT22;2753;49.196;8.286;2023-08-07T09:17:47;15.10;99.90
5461;DHT22;2753;49.196;8.286;2023-08-07T09:20:14;15.10;99.90
5461;DHT22;2753;49.196;8.286;2023-08-07T09:22:41;15.10;99.90
5461;DHT22;2753;49.196;8.286;2023-08-07T09:25:07;15.20;99.90
5461;DHT22;2753;49.196;8.286;2023-08-07T09:27:38;15.30;99.90
5461;DHT22;2753;49.196;8.286;2023-08-07T09:30:07;15.30;99.90
5461;DHT22;2753;49.196;8.286;2023-08-07T09:32:36;15.40;99.90
5461;DHT22;2753;49.196;8.286;2023-08-07T09:35:03;15.40;99.90
5461;DHT22;2753;49.196;8.286;2023-08-07T09:37:36;15.50;99.90
5461;DHT22;2753;49.196;8.286;2023-08-07T09:40:02;15.50;99.90
5461;DHT22;2753;49.196;8.286;2023-08-07T09:42:31;15.60;99.90
5461;DHT22;2753;49.196;8.286;2023-08-07T09:45:02;15.70;99.90
5461;DHT22;2753;49.196;8.286;2023-08-07T09:47:28;15.70;99.90
5461;DHT22;2753;49.196;8.286;2023-08-07T09:49:55;15.80;99.80
5461;DHT22;2753;49.196;8.286;2023-08-07T09:52:21;15.90;99.90
5461;DHT22;2753;49.196;8.286;2023-08-07T09:54:47;15.90;99.30
5461;DHT22;2753;49.196;8.286;2023-08-07T09:57:13;15.90;99.20
5461;DHT22;2753;49.196;8.286;2023-08-07T09:59:40;16.00;99.20
5461;DHT22;2753;49.196;8.286;2023-08-07T10:02:08;16.00;98.70
5461;DHT22;2753;49.196;8.286;2023-08-07T10:04:35;16.00;98.90
5461;DHT22;2753;49.196;8.286;2023-08-07T10:07:01;16.10;99.10
5461;DHT22;2753;49.196;8.286;2023-08-07T10:09:27;16.10;98.60
5461;DHT22;2753;49.196;8.286;2023-08-07T10:11:54;16.20;98.90
5461;DHT22;2753;49.196;8.286;2023-08-07T10:14:22;16.20;99.50
5461;DHT22;2753;49.196;8.286;2023-08-07T10:16:49;16.20;99.90
5461;DHT22;2753;49.196;8.286;2023-08-07T10:19:15;16.20;99.90
5461;DHT22;2753;49.196;8.286;2023-08-07T10:21:41;16.10;99.90
5461;DHT22;2753;49.196;8.286;2023-08-07T10:24:08;16.10;99.90
5461;DHT22;2753;49.196;8.286;2023-08-07T10:26:37;16.10;99.90
5461;DHT22;2753;49.196;8.286;2023-08-07T10:29:08;16.10;99.90
5461;DHT22;2753;49.196;8.286;2023-08-07T10:31:35;16.10;99.90
5461;DHT22;2753;49.196;8.286;2023-08-07T10:34:02;16.10;99.90
5461;DHT22;2753;49.196;8.286;2023-08-07T10:36:35;16.10;99.90
5461;DHT22;2753;49.196;8.286;2023-08-07T10:41:42;16.10;99.90
5461;DHT22;2753;49.196;8.286;2023-08-07T10:44:26;16.10;99.90
5461;DHT22;2753;49.196;8.286;2023-08-07T10:46:56;16.10;99.90
5461;DHT22;2753;49.196;8.286;2023-08-07T10:52:12;16.10;99.90
5461;DHT22;2753;49.196;8.286;2023-08-07T10:54:48;16.10;99.90
5461;DHT22;2753;49.196;8.286;2023-08-07T10:57:16;16.10;99.90
5461;DHT22;2753;49.196;8.286;2023-08-07T11:02:28;16.10;99.90
5461;DHT22;2753;49.196;8.286;2023-08-07T11:04:54;16.10;99.90
5461;DHT22;2753;49.196;8.286;2023-08-07T11:07:25;16.10;99.90
5461;DHT22;2753;49.196;8.286;2023-08-07T11:09:51;16.10;99.40
5461;DHT22;2753;49.196;8.286;2023-08-07T11:12:19;16.10;99.40
5461;DHT22;2753;49.196;8.286;2023-08-07T11:14:46;16.20;99.70
5461;DHT22;2753;49.196;8.286;2023-08-07T11:17:12;16.20;99.60
5461;DHT22;2753;49.196;8.286;2023-08-07T11:19:38;16.20;98.40
5461;DHT22;2753;49.196;8.286;2023-08-07T11:22:04;16.20;98.10
5461;DHT22;2753;49.196;8.286;2023-08-07T11:24:30;16.20;97.60
5461;DHT22;2753;49.196;8.286;2023-08-07T11:26:56;16.20;97.90
5461;DHT22;2753;49.196;8.286;2023-08-07T11:29:24;16.30;97.90
5461;DHT22;2753;49.196;8.286;2023-08-07T11:31:51;16.30;97.50
5461;DHT22;2753;49.196;8.286;2023-08-07T11:34:20;16.30;97.60
5461;DHT22;2753;49.196;8.286;2023-08-07T11:36:46;16.30;97.70
5461;DHT22;2753;49.196;8.286;2023-08-07T11:39:13;16.40;97.60
5461;DHT22;2753;49.196;8.286;2023-08-07T11:41:39;16.40;97.50
5461;DHT22;2753;49.196;8.286;2023-08-07T11:44:08;16.50;97.10
5461;DHT22;2753;49.196;8.286;2023-08-07T11:46:33;16.60;97.30
5461;DHT22;2753;49.196;8.286;2023-08-07T11:48:59;16.60;96.70
5461;DHT22;2753;49.196;8.286;2023-08-07T11:51:25;16.70;97.10
5461;DHT22;2753;49.196;8.286;2023-08-07T11:53:52;16.70;96.90
5461;DHT22;2753;49.196;8.286;2023-08-07T11:56:22;16.80;96.10
5461;DHT22;2753;49.196;8.286;2023-08-07T11:58:48;16.90;96.60
5461;DHT22;2753;49.196;8.286;2023-08-07T12:01:19;17.00;96.40
5461;DHT22;2753;49.196;8.286;2023-08-07T12:04:09;17.10;95.40
5461;DHT22;2753;49.196;8.286;2023-08-07T12:06:36;17.20;95.40
5461;DHT22;2753;49.196;8.286;2023-08-07T12:09:03;17.30;94.80
5461;DHT22;2753;49.196;8.286;2023-08-07T12:11:29;17.30;94.90
5461;DHT22;2753;49.196;8.286;2023-08-07T12:13:55;17.40;94.30
5461;DHT22;2753;49.196;8.286;2023-08-07T12:16:21;17.60;94.70
5461;DHT22;2753;49.196;8.286;2023-08-07T12:18:50;17.60;95.00
5461;DHT22;2753;49.196;8.286;2023-08-07T12:21:18;17.70;94.20
5461;DHT22;2753;49.196;8.286;2023-08-07T12:23:48;17.70;93.90
5461;DHT22;2753;49.196;8.286;2023-08-07T12:26:14;17.70;94.00
5461;DHT22;2753;49.196;8.286;2023-08-07T12:28:40;17.70;93.50
5461;DHT22;2753;49.196;8.286;2023-08-07T12:31:06;17.80;93.80
5461;DHT22;2753;49.196;8.286;2023-08-07T12:33:32;17.90;93.80
5461;DHT22;2753;49.196;8.286;2023-08-07T12:36:00;17.90;94.10
5461;DHT22;2753;49.196;8.286;2023-08-07T12:38:26;17.90;93.70
5461;DHT22;2753;49.196;8.286;2023-08-07T12:40:52;18.00;92.90
5461;DHT22;2753;49.196;8.286;2023-08-07T12:43:18;18.00;92.80
5461;DHT22;2753;49.196;8.286;2023-08-07T12:45:44;17.90;93.10
5461;DHT22;2753;49.196;8.286;2023-08-07T12:48:10;17.90;93.20
5461;DHT22;2753;49.196;8.286;2023-08-07T12:50:36;17.90;92.80
5461;DHT22;2753;49.196;8.286;2023-08-07T12:53:02;17.90;92.40
5461;DHT22;2753;49.196;8.286;2023-08-07T12:55:27;17.90;92.80
5461;DHT22;2753;49.196;8.286;2023-08-07T12:57:54;17.80;93.00
5461;DHT22;2753;49.196;8.286;2023-08-07T13:00:21;17.80;92.80
5461;DHT22;2753;49.196;8.286;2023-08-07T13:02:48;17.90;92.80
5461;DHT22;2753;49.196;8.286;2023-08-07T13:05:15;17.90;93.30
5461;DHT22;2753;49.196;8.286;2023-08-07T13:07:45;17.90;93.20
5461;DHT22;2753;49.196;8.286;2023-08-07T13:10:15;18.00;92.80
5461;DHT22;2753;49.196;8.286;2023-08-07T13:12:43;18.10;92.20
5461;DHT22;2753;49.196;8.286;2023-08-07T13:15:12;18.30;92.00
5461;DHT22;2753;49.196;8.286;2023-08-07T13:17:41;18.50;92.00
5461;DHT22;2753;49.196;8.286;2023-08-07T13:20:09;18.50;91.80
5461;DHT22;2753;49.196;8.286;2023-08-07T13:25:01;18.70;90.70
5461;DHT22;2753;49.196;8.286;2023-08-07T13:27:29;18.60;91.40
5461;DHT22;2753;49.196;8.286;2023-08-07T13:29:55;18.50;91.20
5461;DHT22;2753;49.196;8.286;2023-08-07T13:32:21;18.50;91.20
5461;DHT22;2753;49.196;8.286;2023-08-07T13:34:46;18.50;91.60
5461;DHT22;2753;49.196;8.286;2023-08-07T13:37:13;18.40;91.80
5461;DHT22;2753;49.196;8.286;2023-08-07T13:39:39;18.40;91.90
5461;DHT22;2753;49.196;8.286;2023-08-07T13:42:05;18.50;92.00
5461;DHT22;2753;49.196;8.286;2023-08-07T13:44:32;18.50;92.30
5461;DHT22;2753;49.196;8.286;2023-08-07T13:46:58;18.60;92.50
5461;DHT22;2753;49.196;8.286;2023-08-07T13:49:23;18.70;91.30
5461;DHT22;2753;49.196;8.286;2023-08-07T13:51:49;18.80;91.60
5461;DHT22;2753;49.196;8.286;2023-08-07T13:54:15;19.00;91.00
5461;DHT22;2753;49.196;8.286;2023-08-07T13:56:41;19.00;91.20
5461;DHT22;2753;49.196;8.286;2023-08-07T13:59:07;19.00;91.30
5461;DHT22;2753;49.196;8.286;2023-08-07T14:01:33;19.10;90.90
5461;DHT22;2753;49.196;8.286;2023-08-07T14:04:00;19.10;90.70
5461;DHT22;2753;49.196;8.286;2023-08-07T14:06:27;19.20;90.70
5461;DHT22;2753;49.196;8.286;2023-08-07T14:08:52;19.10;90.80
5461;DHT22;2753;49.196;8.286;2023-08-07T14:11:18;19.10;90.80
5461;DHT22;2753;49.196;8.286;2023-08-07T14:13:45;19.00;90.80
5461;DHT22;2753;49.196;8.286;2023-08-07T14:16:12;18.90;91.20
5461;DHT22;2753;49.196;8.286;2023-08-07T14:18:38;18.80;91.70
5461;DHT22;2753;49.196;8.286;2023-08-07T14:21:07;18.80;92.10
5461;DHT22;2753;49.196;8.286;2023-08-07T14:23:32;18.70;92.40
5461;DHT22;2753;49.196;8.286;2023-08-07T14:25:58;18.80;92.70
5461;DHT22;2753;49.196;8.286;2023-08-07T14:28:24;18.90;92.80
5461;DHT22;2753;49.196;8.286;2023-08-07T14:30:51;19.00;92.40
5461;DHT22;2753;49.196;8.286;2023-08-07T14:33:16;19.10;92.50
5461;DHT22;2753;49.196;8.286;2023-08-07T14:35:42;19.10;92.00
5461;DHT22;2753;49.196;8.286;2023-08-07T14:38:08;19.10;91.30
5461;DHT22;2753;49.196;8.286;2023-08-07T14:40:33;19.10;91.00
5461;DHT22;2753;49.196;8.286;2023-08-07T14:43:03;19.00;91.60
5461;DHT22;2753;49.196;8.286;2023-08-07T14:45:28;19.00;92.00
5461;DHT22;2753;49.196;8.286;2023-08-07T14:47:54;18.90;92.10
5461;DHT22;2753;49.196;8.286;2023-08-07T14:50:20;18.90;92.40
5461;DHT22;2753;49.196;8.286;2023-08-07T14:52:45;19.10;92.50
5461;DHT22;2753;49.196;8.286;2023-08-07T14:55:11;19.10;92.50
5461;DHT22;2753;49.196;8.286;2023-08-07T14:57:37;19.10;92.30
5461;DHT22;2753;49.196;8.286;2023-08-07T15:00:03;19.00;92.50
5461;DHT22;2753;49.196;8.286;2023-08-07T15:02:31;19.00;92.30
5461;DHT22;2753;49.196;8.286;2023-08-07T15:04:56;19.00;91.90
5461;DHT22;2753;49.196;8.286;2023-08-07T15:07:22;19.00;91.90
5461;DHT22;2753;49.196;8.286;2023-08-07T15:09:48;19.10;91.50
5461;DHT22;2753;49.196;8.286;2023-08-07T15:12:16;19.20;91.30
5461;DHT22;2753;49.196;8.286;2023-08-07T15:14:42;19.30;91.50
5461;DHT22;2753;49.196;8.286;2023-08-07T15:17:07;19.30;91.50
5461;DHT22;2753;49.196;8.286;2023-08-07T15:19:33;19.20;91.80
5461;DHT22;2753;49.196;8.286;2023-08-07T15:21:59;19.20;92.20
5461;DHT22;2753;49.196;8.286;2023-08-07T15:24:25;19.30;92.00
5461;DHT22;2753;49.196;8.286;2023-08-07T15:26:51;19.40;91.80
5461;DHT22;2753;49.196;8.286;2023-08-07T15:29:17;19.10;91.60
5461;DHT22;2753;49.196;8.286;2023-08-07T15:31:43;19.40;91.40
5461;DHT22;2753;49.196;8.286;2023-08-07T15:34:09;19.30;91.60
5461;DHT22;2753;49.196;8.286;2023-08-07T15:36:35;19.30;91.70
5461;DHT22;2753;49.196;8.286;2023-08-07T15:39:01;19.40;91.60
5461;DHT22;2753;49.196;8.286;2023-08-07T15:41:28;19.40;92.20
5461;DHT22;2753;49.196;8.286;2023-08-07T15:43:54;19.40;92.60
5461;DHT22;2753;49.196;8.286;2023-08-07T15:46:19;19.40;92.60
5461;DHT22;2753;49.196;8.286;2023-08-07T15:48:45;19.40;92.20
5461;DHT22;2753;49.196;8.286;2023-08-07T15:51:11;19.40;92.20
5461;DHT22;2753;49.196;8.286;2023-08-07T15:53:36;19.30;91.70
5461;DHT22;2753;49.196;8.286;2023-08-07T15:56:02;19.40;91.70
5461;DHT22;2753;49.196;8.286;2023-08-07T15:58:29;19.40;91.40
5461;DHT22;2753;49.196;8.286;2023-08-07T16:00:55;19.40;92.00
5461;DHT22;2753;49.196;8.286;2023-08-07T16:03:22;19.40;92.10
5461;DHT22;2753;49.196;8.286;2023-08-07T16:05:48;19.40;91.80
5461;DHT22;2753;49.196;8.286;2023-08-07T16:08:14;19.30;91.60
5461;DHT22;2753;49.196;8.286;2023-08-07T16:10:40;19.30;91.70
5461;DHT22;2753;49.196;8.286;2023-08-07T16:13:06;19.30;92.50
5461;DHT22;2753;49.196;8.286;2023-08-07T16:15:33;19.20;92.50
5461;DHT22;2753;49.196;8.286;2023-08-07T16:17:59;19.20;92.70
5461;DHT22;2753;49.196;8.286;2023-08-07T16:20:25;19.20;92.90